Terminal Aerodrome Forecast
Issued by NWS

Home | Current Version | Previous Version | Text Only | Print | Product List | Glossary On
Versions: 1 2 3 4 5 6 7 8 9 10 11 12
235
FTUS41 KBTV 252113 AAA
TAFMPV
TAF AMD
KMPV 252113Z 2521/2618 17010KT P6SM VCSH OVC025
     FM260100 14008KT P6SM -SHRA OVC025 WS020/13035KT
     FM260400 13006KT P6SM -SHRA OVC015 WS020/13035KT
     FM260700 12005KT 5SM -SHRA BR OVC008
     FM261300 12004KT P6SM VCSH OVC015
     FM261700 14006KT P6SM OVC020=

USA.gov is the U.S. government's official web portal to all federal, state and local government web resources and services.